createdAt,value
2023-03-29T00:02:09.051Z,47.69
2023-03-29T00:04:35.612Z,46.97
2023-03-29T00:07:02.089Z,47.63
2023-03-29T00:09:42.658Z,46.10
2023-03-29T00:12:09.192Z,47.39
2023-03-29T00:15:23.665Z,46.57
2023-03-29T00:17:22.916Z,46.55
2023-03-29T00:19:49.315Z,46.65
2023-03-29T00:22:15.752Z,46.49
2023-03-29T00:24:42.132Z,46.17
2023-03-29T00:27:08.607Z,46.18
2023-03-29T00:29:36.085Z,46.15
2023-03-29T00:32:02.496Z,44.96
2023-03-29T00:34:28.953Z,45.90
2023-03-29T00:36:55.358Z,45.41
2023-03-29T00:39:21.859Z,46.06
2023-03-29T00:41:50.686Z,45.76
2023-03-29T00:44:18.164Z,45.87
2023-03-29T00:46:44.692Z,44.06
2023-03-29T00:49:11.236Z,43.85
2023-03-29T00:51:37.631Z,43.88
2023-03-29T00:54:10.196Z,43.34
2023-03-29T00:56:36.671Z,44.86
2023-03-29T00:59:03.065Z,45.41
2023-03-29T01:01:29.479Z,45.23
2023-03-29T01:03:55.943Z,46.36
2023-03-29T01:06:22.356Z,47.14
2023-03-29T01:08:48.780Z,47.59
2023-03-29T01:11:15.195Z,47.85
2023-03-29T01:13:41.670Z,47.19
2023-03-29T01:16:08.112Z,46.75
2023-03-29T01:18:34.503Z,44.40
2023-03-29T01:21:01.088Z,44.71
2023-03-29T01:23:27.607Z,44.48
2023-03-29T01:25:54.008Z,44.95
2023-03-29T01:28:20.456Z,44.20
2023-03-29T01:30:46.869Z,44.68
2023-03-29T01:33:13.252Z,46.89
2023-03-29T01:35:39.689Z,46.62
2023-03-29T01:38:08.540Z,47.08
2023-03-29T01:40:34.945Z,46.29
2023-03-29T01:43:01.367Z,47.09
2023-03-29T01:45:27.781Z,49.20
2023-03-29T01:47:54.342Z,49.10
2023-03-29T01:50:20.702Z,48.82
2023-03-29T01:52:47.172Z,48.24
2023-03-29T01:55:13.574Z,48.34
2023-03-29T01:57:40.005Z,48.39
2023-03-29T02:00:06.418Z,47.43
2023-03-29T02:02:32.944Z,47.00
2023-03-29T02:04:59.435Z,46.65
2023-03-29T02:07:25.860Z,46.82
2023-03-29T02:09:52.276Z,45.77
2023-03-29T02:12:18.723Z,44.59
2023-03-29T02:14:45.135Z,47.86
2023-03-29T02:17:11.599Z,48.10
2023-03-29T02:19:38.118Z,47.03
2023-03-29T02:22:06.608Z,45.90
2023-03-29T02:24:33.043Z,46.51
2023-03-29T02:26:59.420Z,46.02
2023-03-29T02:29:25.786Z,46.59
2023-03-29T02:31:52.185Z,46.35
2023-03-29T02:34:18.568Z,46.51
2023-03-29T02:36:45.010Z,46.97
2023-03-29T02:39:11.426Z,46.92
2023-03-29T02:41:37.834Z,47.12
2023-03-29T02:44:04.243Z,46.93
2023-03-29T02:46:30.765Z,49.32
2023-03-29T02:48:57.153Z,48.83
2023-03-29T02:51:23.555Z,49.19
2023-03-29T02:53:50.050Z,48.91
2023-03-29T02:56:20.710Z,48.91
2023-03-29T02:58:47.975Z,48.33
2023-03-29T03:01:14.442Z,47.96
2023-03-29T03:03:40.954Z,47.98
2023-03-29T03:06:07.508Z,48.26
2023-03-29T03:08:34.135Z,49.81
2023-03-29T03:11:00.824Z,49.64
2023-03-29T03:13:27.531Z,49.81
2023-03-29T03:15:53.930Z,49.81
2023-03-29T03:18:20.413Z,48.81
2023-03-29T03:20:46.823Z,49.63
2023-03-29T03:23:13.225Z,49.96
2023-03-29T03:25:39.644Z,50.05
2023-03-29T03:28:06.035Z,50.55
2023-03-29T03:30:32.516Z,50.37
2023-03-29T03:32:59.020Z,49.38
2023-03-29T03:35:26.593Z,49.25
2023-03-29T03:37:52.965Z,49.96
2023-03-29T03:40:19.381Z,48.31
2023-03-29T03:42:45.765Z,50.84
2023-03-29T03:45:12.270Z,52.28
2023-03-29T03:47:38.745Z,51.78
2023-03-29T03:50:05.250Z,51.53
2023-03-29T03:52:31.592Z,52.11
2023-03-29T03:54:57.970Z,52.45
2023-03-29T03:57:24.373Z,53.19
2023-03-29T03:59:50.799Z,52.86
2023-03-29T04:02:17.197Z,53.88
2023-03-29T04:04:43.681Z,53.87
2023-03-29T04:07:10.040Z,54.43
2023-03-29T04:09:36.372Z,53.29
2023-03-29T04:12:02.696Z,52.94
2023-03-29T04:14:29.045Z,52.01
2023-03-29T04:16:55.437Z,52.18
2023-03-29T04:19:21.983Z,53.31
2023-03-29T04:21:48.454Z,52.93
2023-03-29T04:24:14.844Z,51.25
2023-03-29T04:26:41.180Z,51.06
2023-03-29T04:29:07.559Z,51.57
2023-03-29T04:31:33.952Z,51.30
2023-03-29T04:34:02.796Z,50.54
2023-03-29T04:36:29.159Z,51.72
2023-03-29T04:38:55.500Z,51.75
2023-03-29T04:41:21.968Z,52.29
2023-03-29T04:43:48.397Z,52.49
2023-03-29T04:46:14.876Z,52.55
2023-03-29T04:48:41.337Z,53.39
2023-03-29T04:51:07.766Z,51.77
2023-03-29T04:53:34.136Z,53.03
2023-03-29T04:56:00.522Z,53.48
2023-03-29T04:58:30.731Z,55.96
2023-03-29T05:00:58.880Z,55.16
2023-03-29T05:03:25.261Z,54.47
2023-03-29T05:05:51.646Z,53.56
2023-03-29T05:08:20.787Z,54.19
2023-03-29T05:10:47.170Z,53.34
2023-03-29T05:13:13.612Z,53.81
2023-03-29T05:15:41.281Z,53.56
2023-03-29T05:18:07.825Z,52.64
2023-03-29T05:20:34.316Z,52.33
2023-03-29T05:23:00.777Z,52.70
2023-03-29T05:25:27.141Z,52.43
2023-03-29T05:27:53.515Z,52.15
2023-03-29T05:30:19.948Z,56.38
2023-03-29T05:32:46.695Z,58.65
2023-03-29T05:35:13.126Z,58.63
2023-03-29T05:37:39.502Z,59.45
2023-03-29T05:40:06.449Z,58.83
2023-03-29T05:42:32.886Z,58.45
2023-03-29T05:44:59.279Z,59.06
2023-03-29T05:47:25.780Z,58.31
2023-03-29T05:49:52.301Z,58.58
2023-03-29T05:52:18.652Z,58.82
2023-03-29T05:54:45.063Z,58.49
2023-03-29T05:57:11.551Z,57.84
2023-03-29T05:59:38.003Z,58.64
2023-03-29T06:02:04.367Z,59.17
2023-03-29T06:04:31.067Z,59.33
2023-03-29T06:06:57.490Z,59.60
2023-03-29T06:09:23.811Z,59.04
2023-03-29T06:11:50.142Z,58.67
2023-03-29T06:14:16.489Z,58.20
2023-03-29T06:16:43.040Z,58.07
2023-03-29T06:19:09.371Z,58.15
2023-03-29T06:21:35.714Z,58.19
2023-03-29T06:24:02.044Z,57.62
2023-03-29T06:26:28.474Z,57.12
2023-03-29T06:28:54.801Z,58.37
2023-03-29T06:31:21.296Z,57.79
2023-03-29T06:33:47.785Z,58.16
2023-03-29T06:36:14.206Z,57.05
2023-03-29T06:38:40.624Z,57.73
2023-03-29T06:41:07.019Z,57.56
2023-03-29T06:43:33.551Z,57.42
2023-03-29T06:46:00.029Z,58.26
2023-03-29T06:48:26.769Z,58.39
2023-03-29T06:51:03.277Z,58.25
2023-03-29T06:53:29.780Z,57.57
2023-03-29T06:55:57.476Z,57.69
2023-03-29T06:58:24.022Z,57.48
2023-03-29T07:00:50.514Z,57.56
2023-03-29T07:03:17.301Z,57.28
2023-03-29T07:05:45.518Z,57.91
2023-03-29T07:08:11.876Z,57.79
2023-03-29T07:10:38.393Z,57.54
2023-03-29T07:13:04.956Z,57.81
2023-03-29T07:15:31.411Z,57.60
2023-03-29T07:17:58.071Z,56.92
2023-03-29T07:20:24.529Z,57.11
2023-03-29T07:22:51.577Z,57.53
2023-03-29T07:25:18.372Z,56.02
2023-03-29T07:27:44.828Z,56.90
2023-03-29T07:30:11.409Z,57.05
2023-03-29T07:32:37.988Z,58.06
2023-03-29T07:35:04.526Z,57.84
2023-03-29T07:37:30.960Z,58.08
2023-03-29T07:39:57.436Z,58.08
2023-03-29T07:42:23.796Z,58.44
2023-03-29T07:44:50.220Z,58.08
2023-03-29T07:47:16.632Z,57.83
2023-03-29T07:49:42.974Z,57.26
2023-03-29T07:52:09.348Z,57.52
2023-03-29T07:54:35.779Z,57.86
2023-03-29T07:57:03.991Z,57.72
2023-03-29T07:59:38.732Z,56.66
2023-03-29T08:02:05.559Z,57.31
2023-03-29T08:04:32.099Z,56.89
2023-03-29T08:06:58.531Z,57.27
2023-03-29T08:09:24.860Z,58.32
2023-03-29T08:11:51.234Z,57.73
2023-03-29T08:14:17.619Z,57.43
2023-03-29T08:16:44.088Z,57.79
2023-03-29T08:19:10.510Z,58.05
2023-03-29T08:21:36.933Z,57.75
2023-03-29T08:24:03.381Z,58.09
2023-03-29T08:26:29.812Z,58.34
2023-03-29T08:28:56.183Z,58.03
2023-03-29T08:31:22.681Z,58.25
2023-03-29T08:33:49.131Z,56.95
2023-03-29T08:36:17.996Z,56.67
2023-03-29T08:38:44.416Z,56.95
2023-03-29T08:41:10.784Z,56.76
2023-03-29T08:43:37.189Z,56.53
2023-03-29T08:46:03.671Z,55.56
2023-03-29T08:48:30.077Z,56.93
2023-03-29T08:50:56.878Z,55.63
2023-03-29T08:53:23.273Z,56.22
2023-03-29T08:55:49.701Z,56.13
2023-03-29T08:58:16.173Z,55.24
2023-03-29T09:03:23.858Z,55.32
2023-03-29T09:05:50.321Z,55.47
2023-03-29T09:08:16.782Z,55.80
2023-03-29T09:10:43.256Z,55.28
2023-03-29T09:13:09.824Z,55.17
2023-03-29T09:15:36.301Z,55.46
2023-03-29T09:18:02.860Z,56.36
2023-03-29T09:20:29.258Z,56.43
2023-03-29T09:22:55.705Z,56.62
2023-03-29T09:25:22.138Z,55.53
2023-03-29T09:27:48.608Z,55.05
2023-03-29T09:30:15.246Z,55.60
2023-03-29T09:32:41.689Z,55.03
2023-03-29T09:35:08.155Z,55.96
2023-03-29T09:37:34.584Z,54.04
2023-03-29T09:40:02.076Z,54.57
2023-03-29T09:42:30.261Z,53.83
2023-03-29T09:44:58.010Z,53.34
2023-03-29T09:47:24.440Z,54.34
2023-03-29T09:49:50.866Z,53.92
2023-03-29T09:52:17.331Z,53.41
2023-03-29T09:54:43.844Z,54.18
2023-03-29T09:57:10.286Z,54.59
2023-03-29T09:59:36.802Z,54.26
2023-03-29T10:02:03.262Z,54.59
2023-03-29T10:04:35.334Z,54.57
2023-03-29T10:07:01.753Z,54.03
2023-03-29T10:09:28.144Z,54.30
2023-03-29T10:11:54.502Z,54.04
2023-03-29T10:14:21.643Z,53.74
2023-03-29T10:16:48.120Z,53.02
2023-03-29T10:19:14.622Z,53.44
2023-03-29T10:21:41.058Z,53.27
2023-03-29T10:24:07.478Z,52.83
2023-03-29T10:26:34.953Z,52.88
2023-03-29T10:29:01.497Z,53.66
2023-03-29T10:31:27.924Z,53.69
2023-03-29T10:33:54.358Z,53.39
2023-03-29T10:36:20.793Z,53.25
2023-03-29T10:38:47.172Z,53.02
2023-03-29T10:41:13.640Z,53.03
2023-03-29T10:43:40.008Z,53.64
2023-03-29T10:46:06.462Z,53.05
2023-03-29T10:48:32.915Z,53.25
2023-03-29T10:50:59.459Z,53.23
2023-03-29T10:53:25.997Z,53.32
2023-03-29T10:55:52.364Z,53.71
2023-03-29T10:58:18.793Z,53.91
2023-03-29T11:00:45.188Z,53.32
2023-03-29T11:03:13.111Z,53.55
2023-03-29T11:05:41.688Z,53.50
2023-03-29T11:08:08.100Z,53.53
2023-03-29T11:10:34.753Z,53.84
2023-03-29T11:13:01.189Z,53.66
2023-03-29T11:15:27.616Z,53.69
2023-03-29T11:17:54.108Z,55.16
2023-03-29T11:20:20.528Z,55.23
2023-03-29T11:22:46.900Z,54.88
2023-03-29T11:25:13.239Z,55.47
2023-03-29T11:27:39.640Z,57.29
2023-03-29T11:30:06.015Z,57.88
2023-03-29T11:32:32.414Z,57.94
2023-03-29T11:37:49.666Z,58.03
2023-03-29T11:40:17.347Z,58.25
2023-03-29T11:42:43.761Z,58.16
2023-03-29T11:48:02.706Z,59.24
2023-03-29T11:50:37.933Z,58.76
2023-03-29T11:53:04.375Z,57.39
2023-03-29T11:55:30.955Z,57.76
2023-03-29T11:57:57.464Z,58.93
2023-03-29T12:00:23.847Z,57.92
2023-03-29T12:02:50.359Z,58.40
2023-03-29T12:05:16.845Z,56.84
2023-03-29T12:07:43.473Z,57.27
2023-03-29T12:10:09.920Z,58.01
2023-03-29T12:12:36.805Z,56.80
2023-03-29T12:15:03.279Z,56.02
2023-03-29T12:17:29.774Z,57.12
2023-03-29T12:19:56.213Z,57.55
2023-03-29T12:22:22.675Z,57.02
2023-03-29T12:24:49.145Z,55.82
2023-03-29T12:27:15.574Z,56.62
2023-03-29T12:29:42.034Z,58.90
2023-03-29T12:32:08.486Z,58.58
2023-03-29T12:34:35.058Z,57.94
2023-03-29T12:37:02.641Z,57.58
2023-03-29T12:39:29.114Z,57.04
2023-03-29T12:41:55.615Z,57.35
2023-03-29T12:44:22.133Z,57.51
2023-03-29T12:46:48.756Z,57.25
2023-03-29T12:49:15.412Z,57.46
2023-03-29T12:51:41.849Z,57.83
2023-03-29T12:54:08.273Z,57.64
2023-03-29T12:56:34.672Z,57.89
2023-03-29T12:59:01.148Z,56.92
2023-03-29T13:01:27.688Z,56.50
2023-03-29T13:03:58.174Z,56.23
2023-03-29T13:06:24.953Z,55.48
2023-03-29T13:08:51.356Z,55.04
2023-03-29T13:11:17.943Z,55.11
2023-03-29T13:13:48.239Z,54.59
2023-03-29T13:16:14.809Z,54.71
2023-03-29T13:18:41.283Z,54.37
2023-03-29T13:21:07.763Z,54.48
2023-03-29T13:23:34.238Z,54.96
2023-03-29T13:26:00.750Z,54.59
2023-03-29T13:28:27.364Z,53.90
2023-03-29T13:30:54.054Z,53.95
2023-03-29T13:33:20.505Z,54.33
2023-03-29T13:35:47.027Z,54.29
2023-03-29T13:38:13.555Z,54.22
2023-03-29T13:40:39.902Z,53.97
2023-03-29T13:43:06.537Z,54.07
2023-03-29T13:48:23.386Z,54.02
2023-03-29T13:50:49.903Z,54.12
2023-03-29T13:53:16.293Z,53.22
2023-03-29T13:55:42.778Z,54.92
2023-03-29T13:58:09.186Z,55.85
2023-03-29T14:03:21.807Z,56.56
2023-03-29T14:05:48.279Z,55.90
2023-03-29T14:08:22.632Z,54.68
2023-03-29T14:10:48.997Z,55.64
2023-03-29T14:13:15.386Z,54.71
2023-03-29T14:15:41.865Z,54.26
2023-03-29T14:18:08.292Z,54.54
2023-03-29T14:20:34.835Z,53.51
2023-03-29T14:23:01.426Z,53.29
2023-03-29T14:25:27.944Z,52.91
2023-03-29T14:27:54.724Z,53.27
2023-03-29T14:30:27.291Z,53.12
2023-03-29T14:32:53.786Z,52.55
2023-03-29T14:35:20.285Z,52.20
2023-03-29T14:37:46.712Z,52.26
2023-03-29T14:40:13.117Z,51.79
2023-03-29T14:42:39.585Z,51.75
2023-03-29T14:45:05.965Z,51.70
2023-03-29T14:47:32.413Z,51.54
2023-03-29T14:49:58.880Z,51.31
2023-03-29T14:52:25.678Z,50.61
2023-03-29T14:54:54.228Z,50.49
2023-03-29T14:57:20.779Z,50.15
2023-03-29T14:59:47.554Z,49.45
2023-03-29T15:02:14.042Z,49.98
2023-03-29T15:04:40.521Z,49.85
2023-03-29T15:07:06.930Z,49.33
2023-03-29T15:09:33.385Z,50.08
2023-03-29T15:11:59.795Z,49.44
2023-03-29T15:14:26.235Z,50.56
2023-03-29T15:16:52.640Z,49.18
2023-03-29T15:19:19.113Z,50.38
2023-03-29T15:21:45.549Z,50.56
2023-03-29T15:24:12.096Z,49.94
2023-03-29T15:26:38.494Z,49.65
2023-03-29T15:29:04.976Z,48.63
2023-03-29T15:31:31.392Z,50.31
2023-03-29T15:33:57.845Z,50.00
2023-03-29T15:36:24.503Z,49.40
2023-03-29T15:38:51.017Z,49.68
2023-03-29T15:41:17.335Z,48.98
2023-03-29T15:43:44.737Z,49.27
2023-03-29T15:46:12.415Z,48.92
2023-03-29T15:48:38.896Z,49.78
2023-03-29T15:51:06.967Z,49.61
2023-03-29T15:53:33.591Z,49.20
2023-03-29T15:56:00.179Z,49.13
2023-03-29T15:58:26.696Z,48.68
2023-03-29T16:00:53.253Z,48.31
2023-03-29T16:03:19.802Z,48.04
2023-03-29T16:05:46.332Z,47.83
2023-03-29T16:08:12.766Z,48.05
2023-03-29T16:10:46.488Z,48.52
2023-03-29T16:13:12.957Z,48.65
2023-03-29T16:15:39.431Z,48.77
2023-03-29T16:18:05.835Z,48.41
2023-03-29T16:20:32.309Z,48.96
2023-03-29T16:22:58.743Z,49.28
2023-03-29T16:25:25.200Z,49.53
2023-03-29T16:27:51.672Z,50.54
2023-03-29T16:30:18.841Z,51.15
2023-03-29T16:32:45.212Z,50.53
2023-03-29T16:35:11.720Z,50.50
2023-03-29T16:37:38.181Z,50.67
2023-03-29T16:40:04.659Z,50.01
2023-03-29T16:42:31.110Z,51.17
2023-03-29T16:44:57.517Z,50.71
2023-03-29T16:47:23.980Z,50.66
2023-03-29T16:49:50.710Z,50.72
2023-03-29T16:55:15.316Z,51.56
2023-03-29T16:57:41.783Z,50.92
2023-03-29T17:00:08.252Z,50.94
2023-03-29T17:02:34.751Z,50.82
2023-03-29T17:05:01.178Z,51.34
2023-03-29T17:07:27.594Z,51.48
2023-03-29T17:09:54.087Z,51.59
2023-03-29T17:12:20.640Z,51.11
2023-03-29T17:14:47.058Z,51.07
2023-03-29T17:17:13.520Z,52.09
2023-03-29T17:19:40.031Z,52.17
2023-03-29T17:22:06.573Z,50.86
2023-03-29T17:24:33.019Z,51.70
2023-03-29T17:26:59.490Z,52.18
2023-03-29T17:29:25.930Z,51.70
2023-03-29T17:31:52.397Z,52.01
2023-03-29T17:34:18.962Z,51.34
2023-03-29T17:36:45.370Z,52.37
2023-03-29T17:39:19.409Z,52.08
2023-03-29T17:41:54.723Z,52.50
2023-03-29T17:44:21.181Z,52.49
2023-03-29T17:46:47.648Z,50.72
2023-03-29T17:49:14.136Z,51.39
2023-03-29T17:51:40.489Z,51.91
2023-03-29T17:54:06.901Z,52.40
2023-03-29T17:56:33.313Z,50.91
2023-03-29T17:58:59.728Z,51.02
2023-03-29T18:01:26.343Z,51.02
2023-03-29T18:03:53.350Z,51.54
2023-03-29T18:06:22.703Z,53.34
2023-03-29T18:08:49.206Z,53.56
2023-03-29T18:11:15.635Z,53.97
2023-03-29T18:13:42.125Z,54.32
2023-03-29T18:16:08.715Z,55.07
2023-03-29T18:18:35.585Z,53.75
2023-03-29T18:21:03.083Z,53.81
2023-03-29T18:23:29.473Z,53.70
2023-03-29T18:25:55.910Z,54.39
2023-03-29T18:28:22.353Z,54.02
2023-03-29T18:30:48.779Z,54.07
2023-03-29T18:33:15.228Z,54.33
2023-03-29T18:35:41.718Z,54.70
2023-03-29T18:38:08.186Z,54.34
2023-03-29T18:40:34.571Z,54.12
2023-03-29T18:43:01.170Z,54.67
2023-03-29T18:45:27.849Z,54.79
2023-03-29T18:47:54.483Z,54.55
2023-03-29T18:50:21.029Z,54.41
2023-03-29T18:52:54.871Z,54.67
2023-03-29T18:55:21.349Z,55.03
2023-03-29T18:57:47.799Z,54.04
2023-03-29T19:00:14.272Z,52.94
2023-03-29T19:02:40.906Z,53.36
2023-03-29T19:05:12.378Z,53.59
2023-03-29T19:07:38.885Z,53.34
2023-03-29T19:10:05.352Z,54.03
2023-03-29T19:12:31.822Z,53.47
2023-03-29T19:14:58.262Z,53.51
2023-03-29T19:17:24.709Z,53.66
2023-03-29T19:19:51.264Z,53.57
2023-03-29T19:22:18.906Z,52.36
2023-03-29T19:24:45.384Z,53.11
2023-03-29T19:27:12.730Z,53.83
2023-03-29T19:29:39.234Z,53.70
2023-03-29T19:32:05.609Z,54.75
2023-03-29T19:34:33.897Z,54.54
2023-03-29T19:37:00.566Z,54.19
2023-03-29T19:39:26.951Z,53.97
2023-03-29T19:41:53.479Z,53.45
2023-03-29T19:44:19.996Z,53.09
2023-03-29T19:49:38.395Z,53.21
2023-03-29T19:52:04.859Z,53.11
2023-03-29T19:54:31.265Z,52.07
2023-03-29T19:56:59.952Z,53.00
2023-03-29T19:59:26.440Z,52.64
2023-03-29T20:01:53.012Z,52.38
2023-03-29T20:04:19.532Z,52.83
2023-03-29T20:06:48.606Z,52.47
2023-03-29T20:09:15.034Z,53.27
2023-03-29T20:11:41.522Z,53.11
2023-03-29T20:14:07.935Z,53.24
2023-03-29T20:16:41.943Z,53.02
2023-03-29T20:19:08.395Z,53.43
2023-03-29T20:21:37.087Z,53.65
2023-03-29T20:24:17.640Z,53.40
2023-03-29T20:26:44.097Z,53.22
2023-03-29T20:29:10.508Z,53.86
2023-03-29T20:31:36.992Z,53.73
2023-03-29T20:34:03.474Z,53.41
2023-03-29T20:36:32.335Z,53.59
2023-03-29T20:39:01.475Z,54.05
2023-03-29T20:41:29.006Z,54.00
2023-03-29T20:43:55.418Z,53.74
2023-03-29T20:46:21.880Z,54.35
2023-03-29T20:48:48.353Z,54.17
2023-03-29T20:51:14.868Z,54.03
2023-03-29T20:53:41.303Z,54.29
2023-03-29T20:56:07.807Z,54.14
2023-03-29T20:58:34.228Z,54.05
2023-03-29T21:01:00.797Z,54.58
2023-03-29T21:03:27.494Z,54.47
2023-03-29T21:05:54.006Z,54.46
2023-03-29T21:08:20.433Z,54.46
2023-03-29T21:10:48.186Z,54.53
2023-03-29T21:13:14.574Z,53.95
2023-03-29T21:15:41.911Z,54.33
2023-03-29T21:18:11.114Z,54.11
2023-03-29T21:20:37.567Z,53.58
2023-03-29T21:23:04.034Z,53.32
2023-03-29T21:25:30.462Z,54.00
2023-03-29T21:27:56.879Z,53.36
2023-03-29T21:30:23.220Z,53.94
2023-03-29T21:32:49.665Z,53.49
2023-03-29T21:35:16.218Z,53.61
2023-03-29T21:37:42.694Z,53.44
2023-03-29T21:40:09.054Z,53.21
2023-03-29T21:42:36.480Z,53.20
2023-03-29T21:45:02.980Z,53.18
2023-03-29T21:47:29.399Z,53.96
2023-03-29T21:49:55.845Z,54.02
2023-03-29T21:52:22.212Z,53.65
2023-03-29T21:54:48.582Z,53.44
2023-03-29T21:57:15.300Z,54.14
2023-03-29T21:59:41.790Z,54.15
2023-03-29T22:02:08.261Z,54.32
2023-03-29T22:04:37.244Z,54.31
2023-03-29T22:07:04.142Z,54.43
2023-03-29T22:09:30.532Z,55.18
2023-03-29T22:11:56.935Z,55.10
2023-03-29T22:14:23.336Z,54.57
2023-03-29T22:16:49.809Z,53.57
2023-03-29T22:19:16.234Z,53.63
2023-03-29T22:21:42.615Z,53.62
2023-03-29T22:24:08.945Z,52.45
2023-03-29T22:26:35.428Z,51.93
2023-03-29T22:29:01.846Z,53.60
2023-03-29T22:31:28.542Z,53.76
2023-03-29T22:33:54.962Z,53.13
2023-03-29T22:36:21.351Z,53.67
2023-03-29T22:38:49.103Z,53.21
2023-03-29T22:41:15.495Z,53.72
2023-03-29T22:43:41.928Z,54.59
2023-03-29T22:46:11.212Z,55.78
2023-03-29T22:48:37.623Z,55.21
2023-03-29T22:51:04.272Z,55.50
2023-03-29T22:53:30.725Z,54.87
2023-03-29T22:55:57.123Z,54.35
2023-03-29T22:58:23.512Z,54.97
2023-03-29T23:00:50.003Z,54.92
2023-03-29T23:03:18.646Z,54.66
2023-03-29T23:05:45.078Z,54.13
2023-03-29T23:08:11.577Z,54.08
2023-03-29T23:10:40.175Z,54.52
2023-03-29T23:13:06.610Z,54.83
2023-03-29T23:15:32.992Z,54.70
2023-03-29T23:18:02.424Z,54.90
2023-03-29T23:20:28.890Z,54.87
2023-03-29T23:22:55.282Z,55.46
2023-03-29T23:25:21.710Z,55.56
2023-03-29T23:27:48.164Z,55.68
2023-03-29T23:30:14.578Z,55.00
2023-03-29T23:32:40.994Z,54.30
2023-03-29T23:35:07.379Z,53.71
2023-03-29T23:37:33.749Z,53.75
2023-03-29T23:40:00.193Z,53.57
2023-03-29T23:42:27.230Z,53.48
2023-03-29T23:44:53.592Z,54.23
2023-03-29T23:47:20.071Z,53.58
2023-03-29T23:49:46.467Z,52.72
2023-03-29T23:52:12.806Z,53.11
2023-03-29T23:54:40.699Z,53.82
2023-03-29T23:57:07.257Z,54.44
2023-03-29T23:59:38.151Z,55.09
